createdAt,value
2023-04-20T00:01:12.677Z,3.50
2023-04-20T00:03:39.839Z,2.70
2023-04-20T00:06:08.079Z,3.10
2023-04-20T00:08:35.436Z,2.90
2023-04-20T00:11:02.364Z,3.20
2023-04-20T00:13:29.262Z,3.70
2023-04-20T00:15:56.303Z,5.80
2023-04-20T00:18:23.172Z,3.50
2023-04-20T00:20:50.102Z,4.10
2023-04-20T00:23:17.093Z,3.20
2023-04-20T00:25:44.425Z,3.00
2023-04-20T00:28:11.238Z,4.40
2023-04-20T00:30:38.204Z,4.40
2023-04-20T00:33:05.171Z,3.10
2023-04-20T00:35:32.222Z,3.30
2023-04-20T00:37:59.194Z,2.70
2023-04-20T00:40:26.185Z,2.70
2023-04-20T00:42:53.155Z,3.10
2023-04-20T00:45:22.328Z,2.80
2023-04-20T00:47:49.426Z,3.10
2023-04-20T00:50:16.416Z,3.70
2023-04-20T00:52:43.593Z,2.60
2023-04-20T00:55:11.392Z,2.70
2023-04-20T00:57:38.783Z,2.70
2023-04-20T01:00:08.529Z,3.00
2023-04-20T01:02:35.699Z,3.50
2023-04-20T01:05:04.205Z,3.70
2023-04-20T01:07:31.257Z,6.30
2023-04-20T01:09:58.246Z,2.40
2023-04-20T01:12:25.803Z,2.40
2023-04-20T01:14:52.722Z,2.60
2023-04-20T01:17:21.041Z,2.90
2023-04-20T01:19:49.228Z,3.20
2023-04-20T01:22:21.359Z,2.60
2023-04-20T01:24:48.358Z,2.40
2023-04-20T01:27:17.223Z,3.60
2023-04-20T01:29:44.945Z,4.00
2023-04-20T01:32:12.550Z,4.60
2023-04-20T01:34:39.627Z,2.70
2023-04-20T01:37:08.432Z,3.70
2023-04-20T01:39:37.229Z,2.40
2023-04-20T01:42:05.045Z,2.40
2023-04-20T01:44:32.254Z,3.50
2023-04-20T01:47:00.038Z,3.70
2023-04-20T01:49:27.134Z,3.30
2023-04-20T01:51:54.305Z,2.30
2023-04-20T01:54:21.880Z,3.50
2023-04-20T01:56:48.805Z,3.00
2023-04-20T01:59:16.411Z,5.30
2023-04-20T02:01:43.523Z,3.10
2023-04-20T02:04:10.450Z,3.20
2023-04-20T02:06:40.187Z,2.80
2023-04-20T02:09:09.682Z,3.00
2023-04-20T02:11:36.669Z,3.00
2023-04-20T02:14:06.044Z,2.50
2023-04-20T02:16:33.129Z,3.40
2023-04-20T02:19:00.319Z,2.60
2023-04-20T02:21:28.161Z,3.00
2023-04-20T02:23:55.098Z,2.40
2023-04-20T02:26:22.267Z,1.80
2023-04-20T02:28:49.166Z,2.90
2023-04-20T02:31:16.101Z,2.20
2023-04-20T02:33:45.243Z,2.30
2023-04-20T02:36:12.214Z,2.10
2023-04-20T02:38:40.471Z,2.10
2023-04-20T02:41:07.699Z,3.90
2023-04-20T02:43:36.389Z,3.70
2023-04-20T02:46:04.063Z,2.80
2023-04-20T02:48:31.125Z,2.20
2023-04-20T02:50:59.006Z,3.40
2023-04-20T02:53:29.017Z,2.00
2023-04-20T02:56:11.640Z,3.00
2023-04-20T02:58:48.878Z,3.60
2023-04-20T03:01:48.683Z,2.30
2023-04-20T03:04:19.521Z,3.30
2023-04-20T03:06:55.060Z,2.20
2023-04-20T03:09:26.381Z,2.60
2023-04-20T03:11:59.110Z,3.10
2023-04-20T03:14:51.925Z,2.10
2023-04-20T03:17:21.782Z,2.40
2023-04-20T03:19:48.970Z,2.50
2023-04-20T03:22:16.160Z,2.40
2023-04-20T03:24:43.441Z,2.50
2023-04-20T03:27:19.997Z,2.20
2023-04-20T03:29:58.488Z,2.20
2023-04-20T03:32:25.643Z,2.50
2023-04-20T03:34:52.745Z,1.90
2023-04-20T03:37:20.539Z,3.20
2023-04-20T03:39:47.553Z,3.00
2023-04-20T03:42:14.450Z,3.20
2023-04-20T03:44:41.760Z,2.70
2023-04-20T03:47:10.345Z,1.80
2023-04-20T03:49:37.473Z,1.90
2023-04-20T03:52:05.180Z,2.80
2023-04-20T03:54:32.300Z,2.10
2023-04-20T03:57:00.700Z,2.30
2023-04-20T03:59:28.219Z,2.00
2023-04-20T04:01:55.226Z,2.20
2023-04-20T04:04:22.878Z,2.10
2023-04-20T04:06:50.544Z,2.40
2023-04-20T04:09:17.741Z,3.80
2023-04-20T04:11:45.876Z,1.80
2023-04-20T04:14:12.870Z,2.60
2023-04-20T04:16:40.084Z,2.60
2023-04-20T04:19:06.968Z,2.00
2023-04-20T04:21:34.786Z,1.90
2023-04-20T04:24:03.715Z,2.50
2023-04-20T04:26:42.751Z,1.50
2023-04-20T04:29:10.639Z,2.20
2023-04-20T04:31:37.807Z,2.70
2023-04-20T04:34:11.264Z,2.60
2023-04-20T04:36:44.940Z,3.50
2023-04-20T04:39:14.083Z,2.60
2023-04-20T04:41:44.065Z,1.60
2023-04-20T04:44:21.389Z,3.60
2023-04-20T04:46:48.785Z,3.30
2023-04-20T04:49:16.308Z,2.10
2023-04-20T04:51:43.639Z,2.20
2023-04-20T04:54:11.257Z,2.30
2023-04-20T04:56:38.256Z,2.60
2023-04-20T04:59:05.211Z,3.50
2023-04-20T05:01:32.146Z,2.40
2023-04-20T05:03:59.300Z,2.30
2023-04-20T05:06:26.487Z,3.40
2023-04-20T05:08:53.408Z,2.10
2023-04-20T05:11:20.340Z,1.90
2023-04-20T05:13:48.587Z,2.80
2023-04-20T05:16:15.652Z,2.40
2023-04-20T05:18:42.505Z,2.10
2023-04-20T05:21:09.385Z,3.00
2023-04-20T05:23:36.467Z,2.00
2023-04-20T05:26:03.430Z,1.40
2023-04-20T05:28:30.445Z,2.00
2023-04-20T05:30:57.358Z,2.40
2023-04-20T05:33:25.407Z,1.90
2023-04-20T05:35:57.413Z,3.30
2023-04-20T05:38:25.618Z,3.10
2023-04-20T05:40:52.835Z,2.60
2023-04-20T05:43:19.803Z,1.90
2023-04-20T05:45:46.979Z,2.90
2023-04-20T05:48:13.984Z,2.10
2023-04-20T05:50:40.810Z,2.60
2023-04-20T05:53:07.705Z,2.40
2023-04-20T05:55:34.634Z,2.40
2023-04-20T05:58:01.875Z,3.00
2023-04-20T06:00:29.212Z,2.10
2023-04-20T06:02:56.351Z,1.60
2023-04-20T06:05:23.510Z,2.60
2023-04-20T06:07:50.526Z,2.10
2023-04-20T06:10:17.456Z,2.80
2023-04-20T06:12:44.437Z,1.80
2023-04-20T06:15:11.593Z,2.70
2023-04-20T06:17:41.180Z,4.90
2023-04-20T06:20:10.593Z,6.10
2023-04-20T06:22:42.416Z,2.80
2023-04-20T06:25:10.763Z,3.00
2023-04-20T06:27:37.858Z,2.60
2023-04-20T06:30:06.351Z,4.00
2023-04-20T06:32:33.501Z,4.00
2023-04-20T06:35:00.620Z,3.50
2023-04-20T06:37:28.208Z,3.20
2023-04-20T06:39:55.193Z,3.20
2023-04-20T06:42:22.911Z,3.70
2023-04-20T06:44:50.462Z,3.60
2023-04-20T06:47:17.368Z,3.80
2023-04-20T06:49:44.348Z,2.90
2023-04-20T06:52:11.364Z,3.10
2023-04-20T06:54:38.198Z,4.40
2023-04-20T06:57:05.445Z,2.70
2023-04-20T06:59:32.364Z,2.20
2023-04-20T07:01:59.453Z,2.30
2023-04-20T07:04:27.048Z,2.40
2023-04-20T07:06:54.468Z,4.20
2023-04-20T07:09:23.222Z,2.20
2023-04-20T07:11:50.256Z,2.90
2023-04-20T07:14:17.265Z,2.00
2023-04-20T07:16:44.381Z,2.80
2023-04-20T07:19:11.846Z,3.00
2023-04-20T07:21:38.795Z,3.50
2023-04-20T07:24:06.188Z,3.80
2023-04-20T07:26:33.019Z,3.60
2023-04-20T07:28:59.887Z,3.20
2023-04-20T07:31:26.814Z,3.70
2023-04-20T07:33:53.926Z,2.70
2023-04-20T07:36:23.606Z,3.40
2023-04-20T07:38:50.531Z,2.50
2023-04-20T07:41:17.570Z,3.10
2023-04-20T07:43:45.089Z,4.60
2023-04-20T07:46:20.586Z,2.40
2023-04-20T07:48:47.577Z,2.60
2023-04-20T07:51:14.575Z,1.70
2023-04-20T07:53:42.582Z,2.50
2023-04-20T07:56:09.483Z,2.50
2023-04-20T07:58:38.634Z,2.70
2023-04-20T08:01:06.232Z,2.40
2023-04-20T08:03:33.938Z,2.00
2023-04-20T08:06:01.214Z,3.20
2023-04-20T08:08:28.250Z,4.60
2023-04-20T08:10:58.176Z,3.50
2023-04-20T08:13:25.125Z,6.30
2023-04-20T08:15:52.086Z,3.60
2023-04-20T08:18:20.736Z,3.00
2023-04-20T08:20:48.361Z,3.50
2023-04-20T08:23:15.271Z,3.90
2023-04-20T08:25:42.196Z,4.70
2023-04-20T08:28:15.333Z,3.80
2023-04-20T08:30:47.082Z,2.80
2023-04-20T08:33:13.988Z,3.30
2023-04-20T08:35:41.221Z,3.20
2023-04-20T08:38:08.154Z,2.80
2023-04-20T08:40:37.262Z,4.70
2023-04-20T08:43:04.239Z,4.40
2023-04-20T08:45:31.354Z,4.40
2023-04-20T08:47:59.414Z,5.20
2023-04-20T08:50:26.699Z,3.80
2023-04-20T08:52:53.555Z,2.60
2023-04-20T08:55:20.605Z,2.20
2023-04-20T08:57:50.407Z,4.10
2023-04-20T09:00:17.745Z,5.80
2023-04-20T09:02:55.835Z,2.50
2023-04-20T09:05:30.930Z,2.40
2023-04-20T09:08:00.049Z,3.70
2023-04-20T09:10:38.517Z,4.00
2023-04-20T09:13:06.294Z,2.70
2023-04-20T09:15:33.317Z,3.30
2023-04-20T09:18:00.306Z,2.60
2023-04-20T09:20:32.421Z,3.10
2023-04-20T09:23:14.774Z,2.70
2023-04-20T09:25:43.645Z,3.70
2023-04-20T09:28:11.513Z,3.50
2023-04-20T09:30:49.439Z,4.80
2023-04-20T09:33:16.369Z,3.50
2023-04-20T09:35:44.873Z,3.40
2023-04-20T09:38:16.045Z,2.90
2023-04-20T09:40:42.989Z,3.30
2023-04-20T09:43:19.869Z,2.30
2023-04-20T09:45:46.945Z,3.10
2023-04-20T09:48:19.434Z,3.80
2023-04-20T09:50:50.107Z,2.10
2023-04-20T09:53:19.778Z,3.10
2023-04-20T09:55:50.596Z,2.60
2023-04-20T09:58:21.511Z,4.00
2023-04-20T10:00:49.342Z,1.70
2023-04-20T10:03:20.502Z,3.10
2023-04-20T10:05:48.113Z,3.30
2023-04-20T10:08:16.216Z,4.50
2023-04-20T10:10:45.308Z,3.90
2023-04-20T10:13:12.525Z,4.50
2023-04-20T10:15:40.969Z,1.90
2023-04-20T10:18:23.829Z,3.30
2023-04-20T10:20:52.709Z,5.70
2023-04-20T10:23:20.201Z,3.10
2023-04-20T10:26:01.965Z,3.80
2023-04-20T10:28:40.019Z,3.50
2023-04-20T10:31:08.831Z,3.50
2023-04-20T10:33:35.837Z,4.20
2023-04-20T10:36:02.892Z,4.60
2023-04-20T10:38:34.882Z,3.10
2023-04-20T10:41:11.628Z,3.40
2023-04-20T10:43:44.986Z,3.50
2023-04-20T10:46:15.690Z,2.70
2023-04-20T10:49:02.213Z,4.10
2023-04-20T10:51:29.463Z,5.00
2023-04-20T10:54:07.957Z,3.40
2023-04-20T10:56:39.097Z,3.00
2023-04-20T10:59:07.972Z,3.90
2023-04-20T11:01:35.058Z,3.50
2023-04-20T11:04:02.113Z,4.10
2023-04-20T11:06:29.246Z,5.90
2023-04-20T11:08:56.423Z,4.60
2023-04-20T11:11:25.672Z,3.90
2023-04-20T11:13:52.682Z,6.50
2023-04-20T11:16:19.903Z,3.90
2023-04-20T11:18:52.078Z,4.10
2023-04-20T11:21:20.263Z,7.50
2023-04-20T11:23:47.503Z,6.10
2023-04-20T11:26:14.927Z,2.10
2023-04-20T11:28:56.191Z,5.10
2023-04-20T11:31:24.056Z,4.80
2023-04-20T11:33:51.184Z,6.40
2023-04-20T11:36:23.340Z,3.30
2023-04-20T11:38:51.281Z,7.30
2023-04-20T11:41:18.515Z,4.80
2023-04-20T11:43:46.321Z,5.70
2023-04-20T11:46:18.796Z,2.70
2023-04-20T11:48:47.535Z,3.30
2023-04-20T11:51:15.327Z,3.00
2023-04-20T11:53:42.889Z,3.50
2023-04-20T11:56:10.079Z,3.10
2023-04-20T11:58:37.257Z,3.40
2023-04-20T12:01:05.666Z,3.40
2023-04-20T12:03:32.919Z,4.70
2023-04-20T12:06:00.831Z,3.70
2023-04-20T12:08:27.828Z,4.60
2023-04-20T12:10:56.765Z,5.80
2023-04-20T12:13:26.054Z,2.60
2023-04-20T12:15:53.014Z,4.10
2023-04-20T12:18:20.660Z,6.20
2023-04-20T12:20:47.664Z,3.20
2023-04-20T12:23:14.556Z,3.10
2023-04-20T12:25:42.098Z,4.10
2023-04-20T12:28:09.072Z,5.80
2023-04-20T12:30:36.181Z,5.40
2023-04-20T12:33:04.766Z,4.30
2023-04-20T12:35:31.727Z,3.20
2023-04-20T12:37:58.693Z,4.80
2023-04-20T12:40:25.675Z,5.10
2023-04-20T12:42:52.530Z,4.80
2023-04-20T12:45:19.592Z,3.10
2023-04-20T12:47:48.763Z,10.00
2023-04-20T12:50:15.942Z,3.90
2023-04-20T12:52:42.880Z,7.10
2023-04-20T12:55:11.427Z,16.60
2023-04-20T12:57:38.480Z,48.30
2023-04-20T13:00:06.842Z,88.00
2023-04-20T13:02:33.997Z,126.60
2023-04-20T13:05:00.988Z,168.80
2023-04-20T13:07:28.129Z,206.70
2023-04-20T13:09:55.102Z,237.40
2023-04-20T13:12:21.989Z,249.50
2023-04-20T13:14:48.946Z,254.70
2023-04-20T13:17:15.824Z,267.90
2023-04-20T13:19:42.741Z,269.60
2023-04-20T13:22:09.681Z,280.30
2023-04-20T13:24:36.612Z,280.50
2023-04-20T13:27:04.637Z,277.20
2023-04-20T13:29:31.680Z,269.20
2023-04-20T13:31:58.893Z,279.00
2023-04-20T13:34:25.935Z,275.50
2023-04-20T13:36:52.797Z,271.30
2023-04-20T13:39:21.063Z,270.20
2023-04-20T13:41:51.850Z,269.40
2023-04-20T13:44:19.092Z,268.70
2023-04-20T13:46:47.735Z,255.30
2023-04-20T13:49:18.303Z,252.20
2023-04-20T13:51:46.638Z,245.30
2023-04-20T13:54:31.602Z,242.10
2023-04-20T13:57:01.543Z,239.40
2023-04-20T13:59:31.950Z,231.90
2023-04-20T14:02:01.593Z,233.40
2023-04-20T14:04:32.205Z,225.60
2023-04-20T14:07:02.265Z,230.00
2023-04-20T14:09:32.098Z,218.20
2023-04-20T14:12:02.559Z,213.20
2023-04-20T14:14:39.089Z,219.00
2023-04-20T14:17:08.123Z,207.50
2023-04-20T14:19:41.476Z,198.00
2023-04-20T14:22:10.002Z,204.30
2023-04-20T14:24:36.937Z,203.90
2023-04-20T14:27:03.878Z,198.40
2023-04-20T14:29:30.878Z,190.40
2023-04-20T14:31:57.982Z,186.90
2023-04-20T14:34:25.040Z,188.30
2023-04-20T14:36:51.940Z,181.80
2023-04-20T14:39:21.777Z,170.80
2023-04-20T14:41:48.654Z,164.90
2023-04-20T14:44:15.820Z,170.10
2023-04-20T14:46:43.004Z,171.50
2023-04-20T14:49:10.725Z,172.20
2023-04-20T14:51:37.637Z,163.70
2023-04-20T14:54:04.545Z,163.60
2023-04-20T14:56:31.618Z,161.90
2023-04-20T14:58:59.749Z,155.50
2023-04-20T15:01:27.959Z,151.80
2023-04-20T15:03:55.175Z,157.20
2023-04-20T15:06:22.455Z,148.60
2023-04-20T15:08:49.460Z,143.30
2023-04-20T15:11:16.697Z,147.40
2023-04-20T15:13:44.939Z,149.70
2023-04-20T15:16:12.231Z,141.80
2023-04-20T15:18:39.134Z,127.00
2023-04-20T15:21:09.048Z,129.30
2023-04-20T15:23:36.465Z,113.60
2023-04-20T15:26:03.395Z,111.70
2023-04-20T15:28:30.455Z,117.00
2023-04-20T15:30:57.351Z,110.60
2023-04-20T15:33:24.394Z,113.60
2023-04-20T15:35:52.874Z,114.80
2023-04-20T15:38:21.668Z,117.40
2023-04-20T15:40:48.812Z,118.10
2023-04-20T15:43:15.861Z,115.60
2023-04-20T15:45:44.687Z,110.60
2023-04-20T15:48:13.661Z,108.50
2023-04-20T15:50:41.038Z,104.80
2023-04-20T15:53:07.980Z,106.70
2023-04-20T15:55:38.750Z,104.80
2023-04-20T15:58:05.660Z,110.70
2023-04-20T16:00:33.231Z,104.20
2023-04-20T16:03:01.908Z,105.30
2023-04-20T16:05:29.107Z,107.20
2023-04-20T16:07:56.089Z,96.70
2023-04-20T16:10:23.749Z,89.00
2023-04-20T16:12:50.706Z,97.20
2023-04-20T16:15:18.154Z,92.50
2023-04-20T16:17:48.547Z,96.40
2023-04-20T16:20:15.699Z,94.60
2023-04-20T16:22:42.750Z,97.60
2023-04-20T16:25:12.479Z,95.50
2023-04-20T16:27:41.761Z,90.40
2023-04-20T16:30:09.874Z,90.00
2023-04-20T16:32:36.891Z,94.80
2023-04-20T16:35:06.355Z,87.40
2023-04-20T16:37:34.924Z,86.00
2023-04-20T16:40:02.650Z,84.60
2023-04-20T16:42:29.558Z,91.40
2023-04-20T16:44:56.443Z,88.00
2023-04-20T16:47:23.381Z,83.40
2023-04-20T16:49:50.287Z,81.80
2023-04-20T16:52:17.456Z,78.40
2023-04-20T16:54:44.370Z,90.30
2023-04-20T16:57:11.316Z,76.40
2023-04-20T16:59:38.411Z,82.00
2023-04-20T17:02:05.693Z,78.70
2023-04-20T17:04:32.861Z,80.60
2023-04-20T17:06:59.830Z,78.00
2023-04-20T17:09:27.297Z,79.20
2023-04-20T17:11:54.164Z,75.60
2023-04-20T17:14:21.302Z,78.10
2023-04-20T17:16:48.277Z,77.20
2023-04-20T17:19:15.230Z,84.50
2023-04-20T17:21:44.206Z,72.00
2023-04-20T17:24:11.298Z,77.70
2023-04-20T17:26:38.177Z,72.90
2023-04-20T17:29:05.034Z,67.60
2023-04-20T17:31:33.547Z,72.00
2023-04-20T17:34:00.844Z,67.00
2023-04-20T17:36:28.281Z,65.20
2023-04-20T17:38:55.288Z,67.20
2023-04-20T17:41:22.431Z,67.50
2023-04-20T17:43:51.906Z,68.90
2023-04-20T17:46:18.883Z,66.60
2023-04-20T17:48:46.031Z,68.00
2023-04-20T17:51:14.370Z,65.30
2023-04-20T17:53:41.419Z,65.10
2023-04-20T17:56:08.374Z,65.40
2023-04-20T17:58:35.550Z,66.00
2023-04-20T18:01:03.451Z,65.00
2023-04-20T18:03:30.798Z,62.30
2023-04-20T18:05:57.953Z,60.90
2023-04-20T18:08:25.033Z,58.40
2023-04-20T18:10:52.079Z,61.60
2023-04-20T18:13:19.240Z,57.90
2023-04-20T18:15:46.433Z,56.20
2023-04-20T18:18:13.634Z,54.70
2023-04-20T18:20:40.770Z,57.80
2023-04-20T18:23:08.757Z,51.80
2023-04-20T18:25:35.834Z,50.30
2023-04-20T18:28:02.850Z,56.40
2023-04-20T18:30:29.787Z,52.60
2023-04-20T18:32:56.767Z,52.20
2023-04-20T18:35:23.985Z,50.40
2023-04-20T18:37:52.167Z,51.50
2023-04-20T18:40:19.616Z,52.00
2023-04-20T18:42:46.684Z,47.90
2023-04-20T18:45:13.871Z,51.20
2023-04-20T18:47:41.117Z,49.40
2023-04-20T18:50:08.453Z,48.70
2023-04-20T18:52:35.576Z,47.10
2023-04-20T18:55:02.671Z,44.60
2023-04-20T18:57:30.186Z,43.90
2023-04-20T18:59:57.123Z,46.30
2023-04-20T19:02:24.370Z,43.40
2023-04-20T19:04:51.734Z,42.90
2023-04-20T19:07:19.113Z,41.00
2023-04-20T19:09:46.132Z,42.20
2023-04-20T19:12:13.179Z,41.80
2023-04-20T19:14:40.014Z,38.80
2023-04-20T19:17:07.555Z,39.90
2023-04-20T19:19:34.905Z,38.50
2023-04-20T19:22:03.700Z,39.40
2023-04-20T19:24:32.326Z,37.20
2023-04-20T19:26:59.333Z,35.20
2023-04-20T19:29:26.299Z,36.20
2023-04-20T19:31:53.286Z,37.90
2023-04-20T19:34:21.833Z,36.60
2023-04-20T19:36:49.106Z,37.50
2023-04-20T19:39:16.026Z,36.20
2023-04-20T19:41:43.257Z,34.60
2023-04-20T19:44:12.221Z,38.40
2023-04-20T19:46:40.854Z,36.10
2023-04-20T19:49:07.892Z,33.20
2023-04-20T19:51:34.926Z,34.90
2023-04-20T19:54:03.622Z,31.20
2023-04-20T19:56:31.148Z,33.70
2023-04-20T19:58:58.091Z,30.70
2023-04-20T20:01:25.032Z,34.90
2023-04-20T20:03:52.932Z,32.40
2023-04-20T20:06:21.849Z,30.30
2023-04-20T20:08:49.098Z,31.40
2023-04-20T20:11:16.150Z,30.00
2023-04-20T20:13:44.476Z,30.80
2023-04-20T20:16:12.481Z,28.90
2023-04-20T20:18:39.640Z,32.60
2023-04-20T20:21:06.905Z,29.80
2023-04-20T20:23:34.035Z,27.10
2023-04-20T20:26:01.187Z,27.50
2023-04-20T20:28:28.334Z,26.50
2023-04-20T20:30:55.513Z,25.50
2023-04-20T20:33:22.655Z,25.30
2023-04-20T20:35:49.531Z,26.70
2023-04-20T20:38:18.024Z,26.60
2023-04-20T20:40:45.210Z,26.80
2023-04-20T20:43:13.177Z,28.90
2023-04-20T20:45:40.335Z,23.60
2023-04-20T20:48:07.348Z,22.40
2023-04-20T20:50:34.380Z,27.20
2023-04-20T20:53:01.220Z,23.20
2023-04-20T20:55:28.159Z,22.90
2023-04-20T20:57:55.024Z,21.70
2023-04-20T21:00:22.010Z,20.80
2023-04-20T21:02:49.015Z,21.70
2023-04-20T21:05:16.413Z,23.80
2023-04-20T21:07:43.757Z,21.80
2023-04-20T21:10:12.028Z,23.40
2023-04-20T21:12:39.095Z,20.90
2023-04-20T21:15:06.852Z,18.90
2023-04-20T21:17:34.156Z,20.50
2023-04-20T21:20:01.261Z,20.90
2023-04-20T21:22:30.052Z,22.60
2023-04-20T21:24:57.082Z,20.00
2023-04-20T21:27:24.426Z,18.20
2023-04-20T21:29:51.381Z,22.80
2023-04-20T21:32:18.749Z,19.70
2023-04-20T21:34:46.709Z,19.20
2023-04-20T21:37:14.077Z,17.90
2023-04-20T21:39:41.211Z,21.50
2023-04-20T21:42:08.082Z,18.70
2023-04-20T21:44:35.005Z,19.90
2023-04-20T21:47:02.820Z,20.40
2023-04-20T21:49:31.769Z,19.10
2023-04-20T21:51:59.207Z,19.30
2023-04-20T21:54:26.154Z,18.00
2023-04-20T21:56:53.108Z,17.90
2023-04-20T21:59:20.291Z,15.30
2023-04-20T22:01:47.759Z,14.80
2023-04-20T22:04:16.930Z,13.30
2023-04-20T22:06:44.102Z,16.30
2023-04-20T22:09:11.204Z,15.40
2023-04-20T22:11:38.157Z,13.80
2023-04-20T22:14:05.092Z,14.10
2023-04-20T22:16:34.137Z,14.90
2023-04-20T22:19:01.644Z,17.50
2023-04-20T22:21:28.695Z,16.30
2023-04-20T22:23:55.956Z,20.30
2023-04-20T22:26:22.884Z,15.60
2023-04-20T22:28:50.654Z,20.10
2023-04-20T22:31:17.533Z,20.60
2023-04-20T22:33:44.657Z,18.20
2023-04-20T22:36:11.694Z,11.60
2023-04-20T22:38:38.782Z,11.90
2023-04-20T22:41:05.903Z,10.50
2023-04-20T22:43:32.831Z,17.90
2023-04-20T22:45:59.877Z,18.10
2023-04-20T22:48:26.933Z,17.20
2023-04-20T22:50:53.877Z,13.60
2023-04-20T22:53:20.874Z,13.10
2023-04-20T22:55:47.867Z,17.80
2023-04-20T22:58:14.920Z,16.50
2023-04-20T23:00:42.225Z,14.30
2023-04-20T23:03:09.664Z,15.30
2023-04-20T23:05:36.858Z,18.50
2023-04-20T23:08:03.823Z,20.80
2023-04-20T23:10:30.773Z,22.90
2023-04-20T23:12:57.817Z,17.30
2023-04-20T23:15:24.902Z,15.60
2023-04-20T23:17:53.073Z,15.60
2023-04-20T23:20:20.286Z,20.20
2023-04-20T23:22:47.336Z,16.30
2023-04-20T23:25:14.278Z,16.70
2023-04-20T23:27:44.936Z,17.10
2023-04-20T23:30:12.681Z,18.00
2023-04-20T23:32:40.185Z,15.70
2023-04-20T23:35:08.660Z,15.00
2023-04-20T23:37:35.767Z,16.50
2023-04-20T23:40:07.016Z,16.50
2023-04-20T23:42:36.279Z,17.30
2023-04-20T23:45:07.059Z,16.40
2023-04-20T23:47:34.113Z,14.50
2023-04-20T23:50:01.154Z,13.90
2023-04-20T23:52:28.080Z,14.30
2023-04-20T23:54:54.972Z,14.70
2023-04-20T23:57:21.969Z,14.60
2023-04-20T23:59:49.128Z,14.90
